createdAt,value
2019-03-27T00:00:13.725Z,23.97
2019-03-27T00:02:43.991Z,23.40
2019-03-27T00:05:14.534Z,27.23
2019-03-27T00:07:44.722Z,26.90
2019-03-27T00:10:15.261Z,27.40
2019-03-27T00:12:45.410Z,26.83
2019-03-27T00:15:15.705Z,26.60
2019-03-27T00:17:46.178Z,25.90
2019-03-27T00:20:16.732Z,24.30
2019-03-27T00:22:46.920Z,22.40
2019-03-27T00:25:17.213Z,28.83
2019-03-27T00:27:47.454Z,27.70
2019-03-27T00:30:17.657Z,26.17
2019-03-27T00:32:48.009Z,23.90
2019-03-27T00:35:18.204Z,33.30
2019-03-27T00:37:51.236Z,29.17
2019-03-27T00:40:21.440Z,31.30
2019-03-27T00:42:51.599Z,32.77
2019-03-27T00:45:26.796Z,34.07
2019-03-27T00:47:53.712Z,34.07
2019-03-27T00:50:23.940Z,33.17
2019-03-27T00:52:54.139Z,34.73
2019-03-27T00:55:24.412Z,27.93
2019-03-27T00:57:54.549Z,29.83
2019-03-27T01:00:29.335Z,31.63
2019-03-27T01:02:59.602Z,31.07
2019-03-27T01:05:29.815Z,31.60
2019-03-27T01:08:00.064Z,30.50
2019-03-27T01:10:30.262Z,37.17
2019-03-27T01:13:00.451Z,34.60
2019-03-27T01:15:39.672Z,36.90
2019-03-27T01:18:05.050Z,32.53
2019-03-27T01:20:35.231Z,39.73
2019-03-27T01:23:08.630Z,36.03
2019-03-27T01:25:38.947Z,39.10
2019-03-27T01:28:10.289Z,38.23
2019-03-27T01:30:41.017Z,39.30
2019-03-27T01:33:11.242Z,35.27
2019-03-27T01:35:41.871Z,34.43
2019-03-27T01:38:12.767Z,34.87
2019-03-27T01:40:43.256Z,33.00
2019-03-27T01:43:13.964Z,33.73
2019-03-27T01:45:53.087Z,40.00
2019-03-27T01:48:17.576Z,33.10
2019-03-27T01:50:48.319Z,38.50
2019-03-27T01:53:19.291Z,33.03
2019-03-27T01:55:49.497Z,37.60
2019-03-27T01:58:20.402Z,38.47
2019-03-27T02:00:50.608Z,36.30
2019-03-27T02:03:21.460Z,38.13
2019-03-27T02:05:51.655Z,34.40
2019-03-27T02:08:25.360Z,40.97
2019-03-27T02:10:55.749Z,34.03
2019-03-27T02:13:26.010Z,34.63
2019-03-27T02:16:06.339Z,32.40
2019-03-27T02:18:28.727Z,37.43
2019-03-27T02:20:58.876Z,35.13
2019-03-27T02:23:29.422Z,38.70
2019-03-27T02:25:59.595Z,31.77
2019-03-27T02:28:31.806Z,36.10
2019-03-27T02:31:01.982Z,30.50
2019-03-27T02:33:32.178Z,40.07
2019-03-27T02:36:02.323Z,36.73
2019-03-27T02:38:33.251Z,38.27
2019-03-27T02:41:03.340Z,42.80
2019-03-27T02:43:34.244Z,41.30
2019-03-27T02:46:04.499Z,39.10
2019-03-27T02:48:35.426Z,42.17
2019-03-27T02:51:05.612Z,40.70
2019-03-27T02:53:36.137Z,41.83
2019-03-27T02:56:06.233Z,39.80
2019-03-27T02:58:36.856Z,50.93
2019-03-27T03:01:07.363Z,42.50
2019-03-27T03:03:38.767Z,52.50
2019-03-27T03:06:09.195Z,48.27
2019-03-27T03:08:39.965Z,47.40
2019-03-27T03:11:10.200Z,38.93
2019-03-27T03:13:43.038Z,46.87
2019-03-27T03:16:13.331Z,46.47
2019-03-27T03:18:46.474Z,51.47
2019-03-27T03:21:16.751Z,50.23
2019-03-27T03:23:46.914Z,42.90
2019-03-27T03:26:17.164Z,54.10
2019-03-27T03:28:47.891Z,52.40
2019-03-27T03:31:18.427Z,49.60
2019-03-27T03:33:50.389Z,58.87
2019-03-27T03:36:22.405Z,45.97
2019-03-27T03:38:53.318Z,52.37
2019-03-27T03:41:23.537Z,47.10
2019-03-27T03:43:54.446Z,46.53
2019-03-27T03:46:24.877Z,47.20
2019-03-27T03:48:55.743Z,49.67
2019-03-27T03:51:26.013Z,43.97
2019-03-27T03:53:57.141Z,54.30
2019-03-27T03:56:29.219Z,48.77
2019-03-27T03:59:01.311Z,49.23
2019-03-27T04:01:33.572Z,48.10
2019-03-27T04:04:05.502Z,47.63
2019-03-27T04:06:35.788Z,57.77
2019-03-27T04:09:07.243Z,53.47
2019-03-27T04:11:37.528Z,56.97
2019-03-27T04:14:07.750Z,61.57
2019-03-27T04:16:40.224Z,52.90
2019-03-27T04:19:10.998Z,52.27
2019-03-27T04:21:41.184Z,52.20
2019-03-27T04:24:12.073Z,52.97
2019-03-27T04:26:42.884Z,57.37
2019-03-27T04:29:13.125Z,53.77
2019-03-27T04:31:43.300Z,55.87
2019-03-27T04:34:14.118Z,68.47
2019-03-27T04:36:44.366Z,50.27
2019-03-27T04:39:15.267Z,52.77
2019-03-27T04:41:45.325Z,64.63
2019-03-27T04:44:15.949Z,55.57
2019-03-27T04:46:46.987Z,56.70
2019-03-27T04:49:17.447Z,57.10
2019-03-27T04:51:47.590Z,69.30
2019-03-27T04:54:17.850Z,61.63
2019-03-27T04:56:48.119Z,57.93
2019-03-27T04:59:18.482Z,64.60
2019-03-27T05:01:48.651Z,63.37
2019-03-27T05:04:18.896Z,65.13
2019-03-27T05:06:49.693Z,70.77
2019-03-27T05:09:20.022Z,67.50
2019-03-27T05:11:52.074Z,61.27
2019-03-27T05:14:22.624Z,68.77
2019-03-27T05:16:52.776Z,59.20
2019-03-27T05:19:23.127Z,55.90
2019-03-27T05:21:53.382Z,57.10
2019-03-27T05:24:23.603Z,61.40
2019-03-27T05:26:53.820Z,67.13
2019-03-27T05:29:24.664Z,62.07
2019-03-27T05:31:55.976Z,61.07
2019-03-27T05:34:26.969Z,62.43
2019-03-27T05:36:57.141Z,68.33
2019-03-27T05:39:27.434Z,57.30
2019-03-27T05:41:57.825Z,66.30
2019-03-27T05:44:28.135Z,60.77
2019-03-27T05:46:58.369Z,70.47
2019-03-27T05:49:29.660Z,59.57
2019-03-27T05:52:00.037Z,59.07
2019-03-27T05:54:30.326Z,60.30
2019-03-27T05:57:00.541Z,61.70
2019-03-27T05:59:31.085Z,65.33
2019-03-27T06:02:01.874Z,60.47
2019-03-27T06:04:32.150Z,56.07
2019-03-27T06:07:02.388Z,67.33
2019-03-27T06:09:32.648Z,76.63
2019-03-27T06:12:03.036Z,75.93
2019-03-27T06:14:33.699Z,67.80
2019-03-27T06:17:03.890Z,68.30
2019-03-27T06:19:34.215Z,65.37
2019-03-27T06:22:05.055Z,65.03
2019-03-27T06:24:36.128Z,63.47
2019-03-27T06:27:06.533Z,61.33
2019-03-27T06:29:38.421Z,66.90
2019-03-27T06:32:08.952Z,60.17
2019-03-27T06:34:39.598Z,62.30
2019-03-27T06:37:09.897Z,63.47
2019-03-27T06:39:40.355Z,71.03
2019-03-27T06:42:10.712Z,64.90
2019-03-27T06:44:41.260Z,66.73
2019-03-27T06:47:11.430Z,63.50
2019-03-27T06:49:42.008Z,68.60
2019-03-27T06:52:12.424Z,63.53
2019-03-27T06:54:42.844Z,56.90
2019-03-27T06:57:13.043Z,70.37
2019-03-27T06:59:43.811Z,66.77
2019-03-27T07:02:14.300Z,58.83
2019-03-27T07:04:44.558Z,67.70
2019-03-27T07:07:14.786Z,52.20
2019-03-27T07:09:45.424Z,60.40
2019-03-27T07:12:21.357Z,65.23
2019-03-27T07:14:49.242Z,63.47
2019-03-27T07:17:19.467Z,69.20
2019-03-27T07:19:50.191Z,64.83
2019-03-27T07:22:21.202Z,69.90
2019-03-27T07:24:51.835Z,62.70
2019-03-27T07:27:22.240Z,59.03
2019-03-27T07:29:52.688Z,65.57
2019-03-27T07:32:23.121Z,67.50
2019-03-27T07:34:53.476Z,61.20
2019-03-27T07:37:23.781Z,71.53
2019-03-27T07:39:54.044Z,64.77
2019-03-27T07:42:24.437Z,78.77
2019-03-27T07:44:55.230Z,65.20
2019-03-27T07:47:25.589Z,72.33
2019-03-27T07:49:55.985Z,66.30
2019-03-27T07:52:26.523Z,60.37
2019-03-27T07:54:56.814Z,74.50
2019-03-27T07:57:28.124Z,69.27
2019-03-27T08:00:00.452Z,62.83
2019-03-27T08:02:31.558Z,62.43
2019-03-27T08:05:01.818Z,62.97
2019-03-27T08:07:32.014Z,59.77
2019-03-27T08:10:02.878Z,63.83
2019-03-27T08:12:34.483Z,56.63
2019-03-27T08:15:05.771Z,65.70
2019-03-27T08:17:36.661Z,63.00
2019-03-27T08:20:09.042Z,58.10
2019-03-27T08:22:39.785Z,51.47
2019-03-27T08:25:10.404Z,60.33
2019-03-27T08:27:40.620Z,55.17
2019-03-27T08:30:13.348Z,60.43
2019-03-27T08:32:44.521Z,64.23
2019-03-27T08:35:15.229Z,56.90
2019-03-27T08:37:45.373Z,54.43
2019-03-27T08:40:16.991Z,55.77
2019-03-27T08:42:47.312Z,52.93
2019-03-27T08:45:18.399Z,52.83
2019-03-27T08:47:48.654Z,60.07
2019-03-27T08:50:20.308Z,57.47
2019-03-27T08:52:50.706Z,56.77
2019-03-27T08:55:21.165Z,57.53
2019-03-27T08:57:52.409Z,59.20
2019-03-27T09:00:40.899Z,58.40
2019-03-27T09:03:11.417Z,53.63
2019-03-27T09:05:41.695Z,53.50
2019-03-27T09:08:12.393Z,54.60
2019-03-27T09:10:42.563Z,51.73
2019-03-27T09:13:13.030Z,54.53
2019-03-27T09:15:43.209Z,51.30
2019-03-27T09:18:17.092Z,54.47
2019-03-27T09:20:47.264Z,47.70
2019-03-27T09:23:17.877Z,50.00
2019-03-27T09:25:48.091Z,50.47
2019-03-27T09:28:19.437Z,49.90
2019-03-27T09:30:49.645Z,42.80
2019-03-27T09:33:20.133Z,45.80
2019-03-27T09:35:50.322Z,44.37
2019-03-27T09:38:20.743Z,47.00
2019-03-27T09:40:51.089Z,39.63
2019-03-27T09:43:21.582Z,44.37
2019-03-27T09:45:51.911Z,40.93
2019-03-27T09:48:25.983Z,42.10
2019-03-27T09:50:56.375Z,44.10
2019-03-27T09:53:26.636Z,43.67
2019-03-27T09:55:56.908Z,42.53
2019-03-27T09:58:29.074Z,39.67
2019-03-27T10:01:05.309Z,44.20
2019-03-27T10:03:35.754Z,41.43
2019-03-27T10:06:06.173Z,38.50
2019-03-27T10:08:37.392Z,40.53
2019-03-27T10:11:07.682Z,40.33
2019-03-27T10:13:38.241Z,41.10
2019-03-27T10:16:08.709Z,36.60
2019-03-27T10:18:38.992Z,41.47
2019-03-27T10:21:09.323Z,36.07
2019-03-27T10:23:40.851Z,38.47
2019-03-27T10:26:11.388Z,35.83
2019-03-27T10:28:42.280Z,36.30
2019-03-27T10:31:12.780Z,38.00
2019-03-27T10:33:45.127Z,37.83
2019-03-27T10:36:15.585Z,37.23
2019-03-27T10:38:46.472Z,39.40
2019-03-27T10:41:17.197Z,41.33
2019-03-27T10:43:48.934Z,46.97
2019-03-27T10:46:19.769Z,42.20
2019-03-27T10:48:52.720Z,39.10
2019-03-27T10:51:22.528Z,45.90
2019-03-27T10:53:53.483Z,41.43
2019-03-27T10:56:23.970Z,39.13
2019-03-27T10:58:54.871Z,43.77
2019-03-27T11:01:25.409Z,35.97
2019-03-27T11:03:56.395Z,38.17
2019-03-27T11:06:26.843Z,32.03
2019-03-27T11:08:57.777Z,39.20
2019-03-27T11:11:28.163Z,37.50
2019-03-27T11:13:58.355Z,36.37
2019-03-27T11:16:28.675Z,37.63
2019-03-27T11:18:59.886Z,35.67
2019-03-27T11:21:30.551Z,32.40
2019-03-27T11:24:01.018Z,32.30
2019-03-27T11:26:31.225Z,32.80
2019-03-27T11:29:01.509Z,25.90
2019-03-27T11:31:32.259Z,29.60
2019-03-27T11:34:03.408Z,32.80
2019-03-27T11:36:35.288Z,32.67
2019-03-27T11:39:09.482Z,33.93
2019-03-27T11:41:40.324Z,24.97
2019-03-27T11:44:12.745Z,25.40
2019-03-27T11:46:43.112Z,26.67
2019-03-27T11:49:13.811Z,28.73
2019-03-27T11:51:44.061Z,26.70
2019-03-27T11:54:14.904Z,24.90
2019-03-27T11:56:45.649Z,26.87
2019-03-27T11:59:16.994Z,25.63
2019-03-27T12:01:47.170Z,25.10
2019-03-27T12:04:17.584Z,23.73
2019-03-27T12:06:47.753Z,32.53
2019-03-27T12:09:18.151Z,26.53
2019-03-27T12:11:48.464Z,34.33
2019-03-27T12:14:18.756Z,30.73
2019-03-27T12:16:50.165Z,29.60
2019-03-27T12:19:21.184Z,23.03
2019-03-27T12:21:54.694Z,29.30
2019-03-27T12:24:24.710Z,25.73
2019-03-27T12:26:55.625Z,23.90
2019-03-27T12:29:26.605Z,27.63
2019-03-27T12:31:56.804Z,26.07
2019-03-27T12:34:27.937Z,26.50
2019-03-27T12:36:58.191Z,29.00
2019-03-27T12:39:28.943Z,28.53
2019-03-27T12:41:59.252Z,29.43
2019-03-27T12:44:29.599Z,28.50
2019-03-27T12:46:59.800Z,28.33
2019-03-27T12:49:31.132Z,31.10
2019-03-27T12:52:01.874Z,29.20
2019-03-27T12:54:32.830Z,28.93
2019-03-27T12:57:03.030Z,26.43
2019-03-27T12:59:33.935Z,23.90
2019-03-27T13:02:05.542Z,29.20
2019-03-27T13:04:35.723Z,23.73
2019-03-27T13:07:06.040Z,24.83
2019-03-27T13:09:36.785Z,24.97
2019-03-27T13:12:07.102Z,31.13
2019-03-27T13:14:37.882Z,26.67
2019-03-27T13:17:08.334Z,23.33
2019-03-27T13:19:38.999Z,23.17
2019-03-27T13:22:09.350Z,23.37
2019-03-27T13:24:40.156Z,28.37
2019-03-27T13:27:10.446Z,32.57
2019-03-27T13:29:40.622Z,27.70
2019-03-27T13:32:10.869Z,29.33
2019-03-27T13:34:41.223Z,23.30
2019-03-27T13:37:11.408Z,21.27
2019-03-27T13:39:41.997Z,23.40
2019-03-27T13:42:12.409Z,24.27
2019-03-27T13:44:43.087Z,28.37
2019-03-27T13:47:13.511Z,26.53
2019-03-27T13:49:44.257Z,20.37
2019-03-27T13:52:14.893Z,24.20
2019-03-27T13:54:45.076Z,23.90
2019-03-27T13:57:15.390Z,20.80
2019-03-27T13:59:46.148Z,23.70
2019-03-27T14:02:16.438Z,23.90
2019-03-27T14:04:47.188Z,22.43
2019-03-27T14:07:17.491Z,22.30
2019-03-27T14:09:48.078Z,21.33
2019-03-27T14:12:18.350Z,23.50
2019-03-27T14:14:50.484Z,21.90
2019-03-27T14:17:21.441Z,19.93
2019-03-27T14:19:51.570Z,19.83
2019-03-27T14:22:22.078Z,26.07
2019-03-27T14:24:52.994Z,22.87
2019-03-27T14:27:23.570Z,23.80
2019-03-27T14:29:54.435Z,17.40
2019-03-27T14:32:24.719Z,24.57
2019-03-27T14:34:55.085Z,29.40
2019-03-27T14:37:25.308Z,27.20
2019-03-27T14:39:55.781Z,18.33
2019-03-27T14:42:26.075Z,20.93
2019-03-27T14:44:56.266Z,21.47
2019-03-27T14:47:26.604Z,16.90
2019-03-27T14:49:56.854Z,23.47
2019-03-27T14:52:27.032Z,17.57
2019-03-27T14:54:57.772Z,20.80
2019-03-27T14:57:27.994Z,16.90
2019-03-27T14:59:58.870Z,15.23
2019-03-27T15:02:29.162Z,20.20
2019-03-27T15:04:59.943Z,18.37
2019-03-27T15:07:30.256Z,18.00
2019-03-27T15:10:00.476Z,18.03
2019-03-27T15:12:30.662Z,14.63
2019-03-27T15:15:01.140Z,15.50
2019-03-27T15:17:31.336Z,19.23
2019-03-27T15:20:02.027Z,17.83
2019-03-27T15:22:32.283Z,27.53
2019-03-27T15:25:02.554Z,18.30
2019-03-27T15:27:32.852Z,18.23
2019-03-27T15:30:03.622Z,23.80
2019-03-27T15:32:33.798Z,21.70
2019-03-27T15:35:04.094Z,21.57
2019-03-27T15:37:34.454Z,20.87
2019-03-27T15:40:06.066Z,15.47
2019-03-27T15:42:36.287Z,28.20
2019-03-27T15:45:07.713Z,16.47
2019-03-27T15:47:37.905Z,14.97
2019-03-27T15:50:08.342Z,13.07
2019-03-27T15:52:38.594Z,12.93
2019-03-27T15:55:08.942Z,13.90
2019-03-27T15:57:39.226Z,12.23
2019-03-27T16:00:10.747Z,14.80
2019-03-27T16:02:40.922Z,12.20
2019-03-27T16:05:11.082Z,12.77
2019-03-27T16:07:41.267Z,13.73
2019-03-27T16:10:12.513Z,17.40
2019-03-27T16:12:42.806Z,19.37
2019-03-27T16:15:13.272Z,17.03
2019-03-27T16:17:43.901Z,16.50
2019-03-27T16:20:14.107Z,18.70
2019-03-27T16:22:50.983Z,18.90
2019-03-27T16:25:18.030Z,29.13
2019-03-27T16:27:48.120Z,23.13
2019-03-27T16:30:18.532Z,23.03
2019-03-27T16:32:48.791Z,17.63
2019-03-27T16:35:19.089Z,16.03
2019-03-27T16:37:50.261Z,17.20
2019-03-27T16:40:39.925Z,17.87
2019-03-27T16:43:10.037Z,22.80
2019-03-27T16:45:40.281Z,20.70
2019-03-27T16:48:10.616Z,22.50
2019-03-27T16:50:40.845Z,19.37
2019-03-27T16:53:10.999Z,21.80
2019-03-27T16:55:41.108Z,21.57
2019-03-27T16:58:11.548Z,23.60
2019-03-27T17:00:43.216Z,22.77
2019-03-27T17:03:14.376Z,22.43
2019-03-27T17:05:53.884Z,22.83
2019-03-27T17:08:16.636Z,22.37
2019-03-27T17:10:46.778Z,21.70
2019-03-27T17:13:16.971Z,19.43
2019-03-27T17:15:47.133Z,23.83
2019-03-27T17:18:17.432Z,21.93
2019-03-27T17:20:47.591Z,21.80
2019-03-27T17:23:19.110Z,23.63
2019-03-27T17:25:50.268Z,24.27
2019-03-27T17:28:22.582Z,32.50
2019-03-27T17:30:52.725Z,24.83
2019-03-27T17:33:23.143Z,38.03
2019-03-27T17:35:53.386Z,22.10
2019-03-27T17:38:23.545Z,25.73
2019-03-27T17:40:54.232Z,30.47
2019-03-27T17:43:24.331Z,18.80
2019-03-27T17:45:54.451Z,26.40
2019-03-27T17:48:25.783Z,22.77
2019-03-27T17:50:56.280Z,23.90
2019-03-27T17:53:32.000Z,31.30
2019-03-27T17:55:59.165Z,24.03
2019-03-27T17:58:33.385Z,22.43
2019-03-27T18:01:05.153Z,25.30
2019-03-27T18:03:35.228Z,24.43
2019-03-27T18:06:05.444Z,24.73
2019-03-27T18:08:35.603Z,27.83
2019-03-27T18:11:08.122Z,26.30
2019-03-27T18:13:39.271Z,26.07
2019-03-27T18:16:09.474Z,25.67
2019-03-27T18:18:39.669Z,24.87
2019-03-27T18:21:10.808Z,23.33
2019-03-27T18:23:46.157Z,25.37
2019-03-27T18:26:13.333Z,20.53
2019-03-27T18:28:43.716Z,22.73
2019-03-27T18:31:13.838Z,29.00
2019-03-27T18:33:43.904Z,21.60
2019-03-27T18:36:14.180Z,30.63
2019-03-27T18:38:45.900Z,22.43
2019-03-27T18:41:16.505Z,20.67
2019-03-27T18:43:46.557Z,18.10
2019-03-27T18:46:16.736Z,24.60
2019-03-27T18:48:46.817Z,20.17
2019-03-27T18:51:17.792Z,15.23
2019-03-27T18:53:58.822Z,21.50
2019-03-27T18:56:19.914Z,18.23
2019-03-27T18:58:50.068Z,16.80
2019-03-27T19:01:20.674Z,20.80
2019-03-27T19:03:51.410Z,17.27
2019-03-27T19:06:21.707Z,21.90
2019-03-27T19:08:51.941Z,21.13
2019-03-27T19:11:22.243Z,18.80
2019-03-27T19:13:52.589Z,18.70
2019-03-27T19:16:23.907Z,21.77
2019-03-27T19:18:54.127Z,21.63
2019-03-27T19:21:25.341Z,18.43
2019-03-27T19:23:56.026Z,27.53
2019-03-27T19:26:26.634Z,18.70
2019-03-27T19:28:56.902Z,26.90
2019-03-27T19:31:27.221Z,26.70
2019-03-27T19:33:57.981Z,22.87
2019-03-27T19:36:28.346Z,18.13
2019-03-27T19:38:58.826Z,24.17
2019-03-27T19:41:29.224Z,20.33
2019-03-27T19:43:59.762Z,31.07
2019-03-27T19:46:30.119Z,21.27
2019-03-27T19:49:00.310Z,22.63
2019-03-27T19:51:31.082Z,24.93
2019-03-27T19:54:02.465Z,25.93
2019-03-27T19:56:32.685Z,31.10
2019-03-27T19:59:03.142Z,26.37
2019-03-27T20:01:34.705Z,23.07
2019-03-27T20:04:05.423Z,26.53
2019-03-27T20:06:35.788Z,28.73
2019-03-27T20:09:08.005Z,24.53
2019-03-27T20:11:38.427Z,25.53
2019-03-27T20:14:09.045Z,24.97
2019-03-27T20:16:39.364Z,24.20
2019-03-27T20:19:10.065Z,24.73
2019-03-27T20:21:40.807Z,36.73
2019-03-27T20:24:11.651Z,25.90
2019-03-27T20:26:42.518Z,36.93
2019-03-27T20:29:13.499Z,26.33
2019-03-27T20:31:44.341Z,26.10
2019-03-27T20:34:14.988Z,25.90
2019-03-27T20:36:45.825Z,21.63
2019-03-27T20:39:17.266Z,25.97
2019-03-27T20:41:47.757Z,24.90
2019-03-27T20:44:18.052Z,24.03
2019-03-27T20:46:48.246Z,23.60
2019-03-27T20:49:18.640Z,25.13
2019-03-27T20:51:49.334Z,22.97
2019-03-27T20:54:19.539Z,26.50
2019-03-27T20:56:49.695Z,26.93
2019-03-27T20:59:19.962Z,24.97
2019-03-27T21:01:50.648Z,26.37
2019-03-27T21:04:20.933Z,25.70
2019-03-27T21:06:51.228Z,24.23
2019-03-27T21:09:21.576Z,28.00
2019-03-27T21:11:51.809Z,29.47
2019-03-27T21:14:22.046Z,27.03
2019-03-27T21:16:52.198Z,38.90
2019-03-27T21:19:22.704Z,28.87
2019-03-27T21:21:52.838Z,25.77
2019-03-27T21:24:23.254Z,29.00
2019-03-27T21:26:53.495Z,28.10
2019-03-27T21:29:23.768Z,35.17
2019-03-27T21:31:54.660Z,34.13
2019-03-27T21:34:25.054Z,38.30
2019-03-27T21:36:56.236Z,29.70
2019-03-27T21:39:26.484Z,29.83
2019-03-27T21:41:56.747Z,27.43
2019-03-27T21:44:27.070Z,27.87
2019-03-27T21:46:57.218Z,29.53
2019-03-27T21:49:27.493Z,29.50
2019-03-27T21:51:57.769Z,36.30
2019-03-27T21:54:28.042Z,36.43
2019-03-27T21:56:58.944Z,35.80
2019-03-27T21:59:29.695Z,31.30
2019-03-27T22:02:00.568Z,30.63
2019-03-27T22:04:31.310Z,29.07
2019-03-27T22:07:01.688Z,31.13
2019-03-27T22:09:31.920Z,29.50
2019-03-27T22:12:02.026Z,27.77
2019-03-27T22:14:32.365Z,28.90
2019-03-27T22:17:02.484Z,25.53
2019-03-27T22:19:32.730Z,27.77
2019-03-27T22:22:02.949Z,29.97
2019-03-27T22:27:09.208Z,28.40
2019-03-27T22:29:39.566Z,30.30
2019-03-27T22:32:10.261Z,29.70
2019-03-27T22:34:40.480Z,32.40
2019-03-27T22:37:11.798Z,30.30
2019-03-27T22:39:42.068Z,27.93
2019-03-27T22:42:12.856Z,34.40
2019-03-27T22:44:43.699Z,33.00
2019-03-27T22:47:14.035Z,31.40
2019-03-27T22:49:44.925Z,34.73
2019-03-27T22:52:15.775Z,29.83
2019-03-27T22:54:46.085Z,30.70
2019-03-27T22:57:16.913Z,35.23
2019-03-27T22:59:48.969Z,34.10
2019-03-27T23:02:19.236Z,34.13
2019-03-27T23:04:49.616Z,33.47
2019-03-27T23:07:22.482Z,28.33
2019-03-27T23:09:52.751Z,39.13
2019-03-27T23:12:23.608Z,30.40
2019-03-27T23:14:54.743Z,37.53
2019-03-27T23:17:24.964Z,35.93
2019-03-27T23:19:58.010Z,30.50
2019-03-27T23:22:28.905Z,34.50
2019-03-27T23:25:00.901Z,33.67
2019-03-27T23:27:31.741Z,34.10
2019-03-27T23:30:02.004Z,34.53
2019-03-27T23:32:32.446Z,33.77
2019-03-27T23:35:04.593Z,38.60
2019-03-27T23:37:35.036Z,36.33
2019-03-27T23:40:06.807Z,36.80
2019-03-27T23:42:38.272Z,40.73
2019-03-27T23:45:09.669Z,36.80
2019-03-27T23:47:39.764Z,41.57
2019-03-27T23:50:10.403Z,35.50
2019-03-27T23:52:40.537Z,33.30
2019-03-27T23:55:10.835Z,35.70
2019-03-27T23:57:41.011Z,36.63
